createdAt,value
2022-11-29T00:01:40.338Z,5.37
2022-11-29T00:04:08.824Z,5.20
2022-11-29T00:06:37.221Z,6.07
2022-11-29T00:09:11.814Z,5.07
2022-11-29T00:11:59.360Z,3.53
2022-11-29T00:14:28.025Z,3.67
2022-11-29T00:17:04.607Z,3.77
2022-11-29T00:19:33.795Z,2.97
2022-11-29T00:22:02.470Z,3.37
2022-11-29T00:24:32.750Z,2.77
2022-11-29T00:27:01.286Z,2.73
2022-11-29T00:29:30.172Z,3.27
2022-11-29T00:31:58.750Z,1.97
2022-11-29T00:34:27.353Z,3.37
2022-11-29T00:36:55.680Z,2.53
2022-11-29T00:39:24.011Z,1.87
2022-11-29T00:41:52.370Z,2.27
2022-11-29T00:44:20.901Z,2.87
2022-11-29T00:46:49.435Z,2.13
2022-11-29T00:49:17.867Z,2.93
2022-11-29T00:51:46.893Z,2.17
2022-11-29T00:54:16.110Z,1.70
2022-11-29T00:56:44.520Z,2.40
2022-11-29T00:59:12.891Z,2.17
2022-11-29T01:01:41.414Z,2.33
2022-11-29T01:04:09.752Z,2.53
2022-11-29T01:06:38.658Z,3.23
2022-11-29T01:09:06.881Z,2.63
2022-11-29T01:11:35.425Z,2.90
2022-11-29T01:14:03.983Z,2.33
2022-11-29T01:16:33.032Z,2.80
2022-11-29T01:19:01.977Z,2.80
2022-11-29T01:21:30.481Z,3.73
2022-11-29T01:23:59.558Z,2.37
2022-11-29T01:26:29.410Z,2.30
2022-11-29T01:28:58.020Z,2.67
2022-11-29T01:31:37.940Z,2.43
2022-11-29T01:34:06.759Z,2.53
2022-11-29T01:36:35.521Z,1.80
2022-11-29T01:39:04.794Z,1.97
2022-11-29T01:41:34.241Z,2.00
2022-11-29T01:44:15.521Z,2.73
2022-11-29T01:46:45.311Z,1.97
2022-11-29T01:49:18.336Z,2.33
2022-11-29T01:51:56.843Z,2.83
2022-11-29T01:54:25.330Z,3.40
2022-11-29T01:56:53.705Z,2.40
2022-11-29T01:59:24.432Z,2.87
2022-11-29T02:01:53.426Z,3.47
2022-11-29T02:04:21.674Z,2.60
2022-11-29T02:06:50.056Z,2.67
2022-11-29T02:09:22.779Z,2.93
2022-11-29T02:11:55.531Z,3.17
2022-11-29T02:14:57.721Z,4.20
2022-11-29T02:18:10.736Z,4.17
2022-11-29T02:21:03.481Z,3.27
2022-11-29T02:23:56.357Z,4.47
2022-11-29T02:27:02.082Z,4.10
2022-11-29T02:30:07.222Z,3.40
2022-11-29T02:32:56.880Z,3.33
2022-11-29T02:35:37.753Z,2.87
2022-11-29T02:38:21.827Z,2.60
2022-11-29T02:41:26.516Z,2.40
2022-11-29T02:44:16.125Z,1.87
2022-11-29T02:46:57.241Z,2.03
2022-11-29T02:49:55.032Z,1.70
2022-11-29T02:52:54.739Z,1.47
2022-11-29T02:55:41.262Z,1.60
2022-11-29T02:58:13.958Z,1.77
2022-11-29T03:00:47.532Z,2.43
2022-11-29T03:03:21.956Z,2.50
2022-11-29T03:05:58.296Z,2.70
2022-11-29T03:08:55.959Z,3.40
2022-11-29T03:11:30.117Z,4.87
2022-11-29T03:14:24.915Z,3.87
2022-11-29T03:17:14.411Z,3.43
2022-11-29T03:20:09.001Z,2.67
2022-11-29T03:23:08.277Z,3.00
2022-11-29T03:25:50.420Z,3.10
2022-11-29T03:28:21.596Z,3.00
2022-11-29T03:31:14.412Z,3.20
2022-11-29T03:34:05.261Z,2.17
2022-11-29T03:36:40.834Z,2.50
2022-11-29T03:39:18.010Z,2.33
2022-11-29T03:41:52.685Z,1.87
2022-11-29T03:44:28.538Z,1.97
2022-11-29T03:47:07.274Z,2.27
2022-11-29T03:49:55.051Z,1.83
2022-11-29T03:52:49.921Z,4.80
2022-11-29T03:55:48.446Z,5.27
2022-11-29T03:58:34.646Z,7.53
2022-11-29T04:01:24.973Z,3.13
2022-11-29T04:04:24.185Z,1.53
2022-11-29T04:07:01.412Z,2.30
2022-11-29T04:09:36.040Z,2.50
2022-11-29T04:12:04.391Z,1.70
2022-11-29T04:15:03.407Z,2.87
2022-11-29T04:17:53.467Z,2.87
2022-11-29T04:20:48.041Z,2.27
2022-11-29T04:23:47.600Z,1.90
2022-11-29T04:26:34.798Z,2.03
2022-11-29T04:29:33.401Z,2.73
2022-11-29T04:32:20.591Z,3.67
2022-11-29T04:35:26.580Z,2.47
2022-11-29T04:38:07.528Z,1.60
2022-11-29T04:41:01.960Z,3.97
2022-11-29T04:43:51.187Z,1.87
2022-11-29T04:46:38.412Z,1.50
2022-11-29T04:49:24.331Z,1.97
2022-11-29T04:52:14.484Z,1.60
2022-11-29T04:54:58.240Z,1.57
2022-11-29T04:57:45.051Z,2.53
2022-11-29T05:00:19.167Z,3.53
2022-11-29T05:03:08.152Z,2.83
2022-11-29T05:05:41.786Z,2.27
2022-11-29T05:08:29.698Z,2.60
2022-11-29T05:11:39.526Z,2.03
2022-11-29T05:14:25.499Z,1.23
2022-11-29T05:17:27.600Z,1.67
2022-11-29T05:20:25.228Z,1.13
2022-11-29T05:22:58.950Z,0.80
2022-11-29T05:25:38.180Z,1.40
2022-11-29T05:28:13.711Z,1.53
2022-11-29T05:31:20.821Z,2.13
2022-11-29T05:34:01.174Z,1.50
2022-11-29T05:36:41.351Z,1.83
2022-11-29T05:39:38.678Z,1.63
2022-11-29T05:42:20.626Z,1.93
2022-11-29T05:44:56.473Z,1.50
2022-11-29T05:47:31.629Z,2.60
2022-11-29T05:50:36.011Z,1.63
2022-11-29T05:53:22.505Z,2.10
2022-11-29T05:55:53.860Z,1.90
2022-11-29T05:58:34.320Z,1.90
2022-11-29T06:01:07.491Z,2.40
2022-11-29T06:03:52.020Z,2.47
2022-11-29T06:06:30.177Z,2.97
2022-11-29T06:09:28.760Z,2.17
2022-11-29T06:12:05.702Z,1.57
2022-11-29T06:14:39.833Z,3.63
2022-11-29T06:17:18.842Z,1.97
2022-11-29T06:19:58.963Z,2.10
2022-11-29T06:22:59.645Z,2.40
2022-11-29T06:25:42.981Z,2.53
2022-11-29T06:28:47.655Z,3.10
2022-11-29T06:31:30.403Z,2.40
2022-11-29T06:34:11.353Z,2.67
2022-11-29T06:36:44.420Z,1.80
2022-11-29T06:39:13.109Z,1.33
2022-11-29T06:41:41.409Z,1.33
2022-11-29T06:44:10.799Z,1.57
2022-11-29T06:46:43.086Z,1.43
2022-11-29T06:49:35.481Z,2.40
2022-11-29T06:52:28.731Z,3.30
2022-11-29T06:55:07.967Z,2.90
2022-11-29T06:57:57.928Z,4.00
2022-11-29T07:00:42.683Z,3.33
2022-11-29T07:03:20.274Z,3.37
2022-11-29T07:05:48.810Z,4.00
2022-11-29T07:08:21.688Z,3.53
2022-11-29T07:10:53.460Z,3.03
2022-11-29T07:13:22.266Z,3.03
2022-11-29T07:16:02.788Z,3.13
2022-11-29T07:18:39.878Z,2.67
2022-11-29T07:21:17.339Z,3.20
2022-11-29T07:24:07.231Z,3.10
2022-11-29T07:27:08.821Z,2.80
2022-11-29T07:29:53.979Z,2.57
2022-11-29T07:32:34.578Z,2.33
2022-11-29T07:35:05.331Z,3.17
2022-11-29T07:38:01.145Z,3.63
2022-11-29T07:40:49.720Z,4.23
2022-11-29T07:43:39.290Z,4.37
2022-11-29T07:46:08.250Z,3.73
2022-11-29T07:48:36.627Z,4.27
2022-11-29T07:51:04.989Z,3.00
2022-11-29T07:53:33.384Z,3.53
2022-11-29T07:56:01.702Z,3.73
2022-11-29T07:58:30.125Z,3.53
2022-11-29T08:00:58.428Z,3.30
2022-11-29T08:03:26.871Z,3.30
2022-11-29T08:05:55.274Z,3.80
2022-11-29T08:08:23.699Z,4.27
2022-11-29T08:10:52.007Z,3.63
2022-11-29T08:13:21.430Z,3.03
2022-11-29T08:15:49.741Z,3.10
2022-11-29T08:18:18.268Z,3.13
2022-11-29T08:20:46.698Z,3.27
2022-11-29T08:23:15.439Z,3.07
2022-11-29T08:25:46.171Z,2.93
2022-11-29T08:28:14.635Z,2.60
2022-11-29T08:30:43.741Z,3.17
2022-11-29T08:33:12.155Z,2.43
2022-11-29T08:35:42.452Z,2.97
2022-11-29T08:38:10.854Z,2.73
2022-11-29T08:40:39.348Z,6.33
2022-11-29T08:43:07.668Z,5.67
2022-11-29T08:45:36.103Z,4.13
2022-11-29T08:48:04.822Z,3.40
2022-11-29T08:50:33.122Z,3.03
2022-11-29T08:53:19.962Z,2.33
2022-11-29T08:55:48.414Z,2.50
2022-11-29T08:58:17.357Z,2.43
2022-11-29T09:00:47.338Z,1.90
2022-11-29T09:03:34.659Z,2.57
2022-11-29T09:06:21.721Z,2.40
2022-11-29T09:08:50.164Z,2.80
2022-11-29T09:11:21.289Z,2.13
2022-11-29T09:13:56.156Z,1.30
2022-11-29T09:16:26.326Z,1.83
2022-11-29T09:18:56.132Z,2.13
2022-11-29T09:21:25.417Z,1.10
2022-11-29T09:23:59.919Z,1.33
2022-11-29T09:26:32.814Z,2.30
2022-11-29T09:29:02.140Z,2.03
2022-11-29T09:31:31.105Z,2.23
2022-11-29T09:33:59.508Z,3.20
2022-11-29T09:36:29.329Z,3.37
2022-11-29T09:38:58.430Z,2.03
2022-11-29T09:41:26.703Z,2.20
2022-11-29T09:44:28.563Z,2.57
2022-11-29T09:47:26.978Z,3.07
2022-11-29T09:49:55.222Z,4.77
2022-11-29T09:52:38.448Z,1.80
2022-11-29T09:55:21.464Z,1.13
2022-11-29T09:57:49.770Z,2.73
2022-11-29T10:00:21.318Z,1.77
2022-11-29T10:02:55.765Z,2.27
2022-11-29T10:05:41.281Z,1.37
2022-11-29T10:08:16.319Z,1.87
2022-11-29T10:10:49.242Z,4.07
2022-11-29T10:13:47.435Z,2.10
2022-11-29T10:16:28.969Z,4.83
2022-11-29T10:19:15.466Z,2.60
2022-11-29T10:21:47.335Z,3.10
2022-11-29T10:24:18.635Z,2.80
2022-11-29T10:26:47.121Z,2.03
2022-11-29T10:29:16.973Z,2.60
2022-11-29T10:31:49.740Z,2.90
2022-11-29T10:34:22.895Z,1.93
2022-11-29T10:37:02.973Z,2.13
2022-11-29T10:39:44.329Z,1.37
2022-11-29T10:42:35.905Z,2.83
2022-11-29T10:45:06.386Z,1.43
2022-11-29T10:47:34.794Z,1.23
2022-11-29T10:50:03.157Z,1.60
2022-11-29T10:52:31.485Z,1.70
2022-11-29T10:55:00.131Z,1.73
2022-11-29T10:57:28.654Z,1.93
2022-11-29T11:00:10.950Z,2.47
2022-11-29T11:02:39.299Z,2.07
2022-11-29T11:05:19.665Z,1.73
2022-11-29T11:07:55.818Z,7.57
2022-11-29T11:10:28.631Z,3.73
2022-11-29T11:13:11.121Z,4.40
2022-11-29T11:15:39.813Z,2.80
2022-11-29T11:18:15.489Z,6.63
2022-11-29T11:20:44.631Z,5.37
2022-11-29T11:23:27.820Z,5.43
2022-11-29T11:26:02.181Z,4.33
2022-11-29T11:28:50.792Z,3.20
2022-11-29T11:31:30.334Z,2.23
2022-11-29T11:34:18.721Z,2.30
2022-11-29T11:36:47.142Z,2.17
2022-11-29T11:39:20.576Z,2.50
2022-11-29T11:42:07.937Z,1.93
2022-11-29T11:44:48.965Z,2.77
2022-11-29T11:47:28.572Z,2.17
2022-11-29T11:50:28.541Z,1.30
2022-11-29T11:53:27.875Z,1.80
2022-11-29T11:56:01.621Z,1.70
2022-11-29T11:58:30.829Z,2.70
2022-11-29T12:01:12.247Z,3.00
2022-11-29T12:04:12.201Z,3.30
2022-11-29T12:06:45.358Z,1.40
2022-11-29T12:09:35.218Z,2.03
2022-11-29T12:12:18.209Z,2.57
2022-11-29T12:15:11.355Z,7.50
2022-11-29T12:17:49.316Z,4.60
2022-11-29T12:20:39.097Z,2.27
2022-11-29T12:23:13.651Z,3.20
2022-11-29T12:26:03.179Z,5.00
2022-11-29T12:28:36.231Z,4.33
2022-11-29T12:31:43.494Z,4.17
2022-11-29T12:34:33.792Z,2.37
2022-11-29T12:37:17.389Z,1.70
2022-11-29T12:40:05.791Z,2.13
2022-11-29T12:42:57.858Z,2.33
2022-11-29T12:45:32.327Z,3.53
2022-11-29T12:48:23.202Z,1.03
2022-11-29T12:51:15.967Z,2.03
2022-11-29T12:54:03.453Z,2.77
2022-11-29T12:56:40.346Z,3.13
2022-11-29T12:59:32.683Z,2.97
2022-11-29T13:02:29.281Z,2.20
2022-11-29T13:05:16.296Z,1.10
2022-11-29T13:07:58.435Z,1.53
2022-11-29T13:10:35.194Z,1.23
2022-11-29T13:13:07.704Z,1.17
2022-11-29T13:15:40.948Z,1.07
2022-11-29T13:18:35.412Z,1.57
2022-11-29T13:21:31.827Z,1.23
2022-11-29T13:24:09.036Z,1.80
2022-11-29T13:26:41.464Z,1.30
2022-11-29T13:29:14.602Z,1.60
2022-11-29T13:31:43.224Z,1.03
2022-11-29T13:34:39.972Z,1.87
2022-11-29T13:37:22.220Z,1.80
2022-11-29T13:40:06.005Z,1.83
2022-11-29T13:42:46.995Z,1.97
2022-11-29T13:45:26.399Z,1.80
2022-11-29T13:47:59.028Z,1.53
2022-11-29T13:50:37.359Z,1.70
2022-11-29T13:53:20.076Z,1.20
2022-11-29T13:56:06.710Z,1.30
2022-11-29T13:58:36.894Z,0.83
2022-11-29T14:01:10.464Z,4.83
2022-11-29T14:03:50.529Z,3.53
2022-11-29T14:06:22.242Z,3.60
2022-11-29T14:09:18.310Z,4.83
2022-11-29T14:11:53.007Z,3.03
2022-11-29T14:14:49.945Z,1.70
2022-11-29T14:17:47.267Z,1.83
2022-11-29T14:20:28.971Z,1.47
2022-11-29T14:23:06.625Z,1.53
2022-11-29T14:25:51.808Z,1.77
2022-11-29T14:28:23.492Z,1.33
2022-11-29T14:30:52.532Z,1.47
2022-11-29T14:33:51.901Z,2.63
2022-11-29T14:36:23.531Z,2.20
2022-11-29T14:39:19.981Z,3.73
2022-11-29T14:41:51.346Z,3.53
2022-11-29T14:44:31.869Z,2.20
2022-11-29T14:47:37.486Z,2.27
2022-11-29T14:50:09.193Z,2.10
2022-11-29T14:52:40.993Z,1.77
2022-11-29T14:55:18.175Z,1.03
2022-11-29T14:58:04.338Z,1.73
2022-11-29T15:00:35.843Z,1.83
2022-11-29T15:03:16.691Z,1.30
2022-11-29T15:06:08.978Z,1.70
2022-11-29T15:08:50.426Z,2.50
2022-11-29T15:11:33.291Z,2.30
2022-11-29T15:14:20.790Z,2.17
2022-11-29T15:17:08.179Z,2.20
2022-11-29T15:19:36.413Z,2.90
2022-11-29T15:22:19.839Z,3.20
2022-11-29T15:24:56.181Z,3.20
2022-11-29T15:27:26.023Z,2.20
2022-11-29T15:29:55.135Z,2.97
2022-11-29T15:32:26.855Z,2.30
2022-11-29T15:34:56.386Z,1.30
2022-11-29T15:37:45.769Z,1.43
2022-11-29T15:40:26.495Z,1.43
2022-11-29T15:43:14.817Z,2.60
2022-11-29T15:45:54.781Z,2.80
2022-11-29T15:48:28.312Z,2.50
2022-11-29T15:51:08.796Z,3.57
2022-11-29T15:54:00.358Z,3.63
2022-11-29T15:56:59.379Z,3.07
2022-11-29T15:59:34.830Z,3.17
2022-11-29T16:02:14.546Z,3.07
2022-11-29T16:04:46.874Z,3.47
2022-11-29T16:07:16.150Z,2.13
2022-11-29T16:09:49.186Z,3.63
2022-11-29T16:12:18.865Z,3.83
2022-11-29T16:14:56.973Z,4.50
2022-11-29T16:17:26.481Z,4.43
2022-11-29T16:20:16.990Z,4.40
2022-11-29T16:22:45.962Z,2.87
2022-11-29T16:25:20.288Z,2.73
2022-11-29T16:27:49.371Z,3.57
2022-11-29T16:30:22.012Z,3.87
2022-11-29T16:33:01.451Z,4.50
2022-11-29T16:35:32.074Z,3.07
2022-11-29T16:38:05.674Z,11.67
2022-11-29T16:40:35.797Z,5.43
2022-11-29T16:43:28.379Z,4.83
2022-11-29T16:46:22.880Z,4.07
2022-11-29T16:48:55.166Z,2.47
2022-11-29T16:51:46.572Z,2.80
2022-11-29T16:54:25.841Z,3.37
2022-11-29T16:56:55.110Z,2.57
2022-11-29T16:59:27.809Z,2.53
2022-11-29T17:01:57.071Z,2.10
2022-11-29T17:04:27.108Z,2.80
2022-11-29T17:06:56.995Z,2.60
2022-11-29T17:09:30.720Z,3.23
2022-11-29T17:12:00.197Z,4.30
2022-11-29T17:14:31.416Z,3.33
2022-11-29T17:17:02.572Z,2.83
2022-11-29T17:19:31.199Z,3.37
2022-11-29T17:21:59.981Z,3.17
2022-11-29T17:24:29.511Z,2.33
2022-11-29T17:26:57.992Z,1.97
2022-11-29T17:29:26.430Z,3.63
2022-11-29T17:31:54.910Z,4.13
2022-11-29T17:34:25.412Z,4.90
2022-11-29T17:36:54.909Z,4.03
2022-11-29T17:39:24.991Z,4.30
2022-11-29T17:41:53.459Z,4.23
2022-11-29T17:44:21.871Z,4.40
2022-11-29T17:46:50.370Z,5.37
2022-11-29T17:49:20.827Z,5.70
2022-11-29T17:51:52.863Z,6.17
2022-11-29T17:54:22.594Z,5.43
2022-11-29T17:56:52.181Z,5.73
2022-11-29T17:59:21.322Z,4.57
2022-11-29T18:01:51.379Z,4.70
2022-11-29T18:04:25.453Z,4.93
2022-11-29T18:06:53.996Z,5.20
2022-11-29T18:09:22.641Z,5.50
2022-11-29T18:11:51.182Z,4.83
2022-11-29T18:14:28.473Z,3.60
2022-11-29T18:16:57.086Z,3.77
2022-11-29T18:19:25.929Z,5.90
2022-11-29T18:21:55.012Z,5.80
2022-11-29T18:24:24.075Z,5.30
2022-11-29T18:26:52.483Z,6.00
2022-11-29T18:29:21.898Z,7.47
2022-11-29T18:31:52.026Z,7.17
2022-11-29T18:34:20.343Z,5.80
2022-11-29T18:36:49.213Z,4.93
2022-11-29T18:39:19.631Z,6.30
2022-11-29T18:41:49.112Z,6.57
2022-11-29T18:44:20.307Z,5.93
2022-11-29T18:46:48.988Z,5.30
2022-11-29T18:49:18.228Z,4.60
2022-11-29T18:51:47.306Z,4.80
2022-11-29T18:54:18.013Z,4.57
2022-11-29T18:56:48.102Z,3.20
2022-11-29T18:59:18.260Z,3.90
2022-11-29T19:01:48.751Z,9.57
2022-11-29T19:04:21.234Z,13.07
2022-11-29T19:06:49.693Z,9.30
2022-11-29T19:09:23.490Z,4.63
2022-11-29T19:11:54.753Z,4.10
2022-11-29T19:14:24.216Z,5.23
2022-11-29T19:16:52.683Z,4.10
2022-11-29T19:19:21.455Z,3.60
2022-11-29T19:21:50.760Z,3.60
2022-11-29T19:24:20.405Z,5.40
2022-11-29T19:26:50.212Z,5.20
2022-11-29T19:29:19.481Z,4.10
2022-11-29T19:31:48.036Z,3.73
2022-11-29T19:34:17.793Z,3.90
2022-11-29T19:36:46.360Z,3.63
2022-11-29T19:39:17.022Z,4.07
2022-11-29T19:41:48.972Z,3.70
2022-11-29T19:44:19.151Z,2.80
2022-11-29T19:46:49.431Z,2.20
2022-11-29T19:49:19.792Z,2.10
2022-11-29T19:51:50.806Z,2.13
2022-11-29T19:54:24.391Z,1.60
2022-11-29T19:56:55.543Z,1.50
2022-11-29T19:59:25.558Z,1.97
2022-11-29T20:01:54.107Z,1.83
2022-11-29T20:04:24.701Z,2.17
2022-11-29T20:06:54.994Z,2.53
2022-11-29T20:09:24.652Z,1.73
2022-11-29T20:11:53.000Z,2.40
2022-11-29T20:14:21.571Z,2.57
2022-11-29T20:16:50.116Z,2.50
2022-11-29T20:19:19.546Z,2.40
2022-11-29T20:21:49.089Z,2.13
2022-11-29T20:24:21.097Z,3.03
2022-11-29T20:26:49.643Z,2.33
2022-11-29T20:29:19.641Z,1.90
2022-11-29T20:31:50.969Z,2.30
2022-11-29T20:34:29.135Z,2.53
2022-11-29T20:37:12.165Z,2.80
2022-11-29T20:40:00.027Z,2.47
2022-11-29T20:42:46.948Z,2.17
2022-11-29T20:45:16.040Z,3.10
2022-11-29T20:47:52.370Z,3.20
2022-11-29T20:50:23.718Z,2.90
2022-11-29T20:53:07.828Z,1.97
2022-11-29T20:55:44.834Z,2.70
2022-11-29T20:58:16.092Z,3.67
2022-11-29T21:00:44.482Z,3.70
2022-11-29T21:03:17.159Z,4.80
2022-11-29T21:05:46.601Z,5.00
2022-11-29T21:08:15.852Z,5.20
2022-11-29T21:10:44.328Z,4.13
2022-11-29T21:13:13.233Z,4.47
2022-11-29T21:15:42.812Z,3.53
2022-11-29T21:18:24.728Z,3.13
2022-11-29T21:21:05.060Z,3.97
2022-11-29T21:23:39.231Z,4.60
2022-11-29T21:26:08.479Z,3.63
2022-11-29T21:28:39.766Z,3.93
2022-11-29T21:31:12.265Z,5.67
2022-11-29T21:33:41.482Z,3.33
2022-11-29T21:36:10.175Z,3.80
2022-11-29T21:38:38.583Z,2.17
2022-11-29T21:41:08.163Z,3.77
2022-11-29T21:44:04.782Z,3.37
2022-11-29T21:46:25.670Z,2.40
2022-11-29T21:48:54.147Z,3.07
2022-11-29T21:51:22.495Z,2.83
2022-11-29T21:53:50.929Z,4.00
2022-11-29T21:56:20.725Z,2.40
2022-11-29T21:58:49.235Z,3.10
2022-11-29T22:01:19.385Z,2.73
2022-11-29T22:03:48.632Z,2.97
2022-11-29T22:06:20.794Z,2.30
2022-11-29T22:08:49.234Z,1.63
2022-11-29T22:11:31.172Z,2.40
2022-11-29T22:14:14.252Z,2.10
2022-11-29T22:16:59.325Z,1.93
2022-11-29T22:19:36.420Z,2.07
2022-11-29T22:22:05.910Z,1.67
2022-11-29T22:24:35.678Z,1.87
2022-11-29T22:27:04.176Z,2.03
2022-11-29T22:29:32.612Z,2.03
2022-11-29T22:32:01.529Z,1.90
2022-11-29T22:34:29.933Z,1.30
2022-11-29T22:36:58.325Z,1.63
2022-11-29T22:39:26.870Z,1.10
2022-11-29T22:41:55.493Z,1.43
2022-11-29T22:44:24.160Z,1.40
2022-11-29T22:46:52.669Z,1.03
2022-11-29T22:49:21.090Z,1.50
2022-11-29T22:51:49.495Z,1.20
2022-11-29T22:54:19.023Z,1.23
2022-11-29T22:56:47.480Z,1.97
2022-11-29T22:59:15.772Z,1.43
2022-11-29T23:01:44.278Z,1.70
2022-11-29T23:04:12.833Z,1.20
2022-11-29T23:06:43.062Z,1.43
2022-11-29T23:09:21.542Z,1.03
2022-11-29T23:11:54.364Z,1.10
2022-11-29T23:14:23.004Z,1.53
2022-11-29T23:16:51.681Z,1.83
2022-11-29T23:19:20.114Z,1.10
2022-11-29T23:21:48.484Z,0.90
2022-11-29T23:24:16.972Z,1.03
2022-11-29T23:26:46.369Z,1.13
2022-11-29T23:29:16.518Z,1.87
2022-11-29T23:31:45.370Z,1.10
2022-11-29T23:34:13.874Z,2.37
2022-11-29T23:36:42.255Z,6.20
2022-11-29T23:39:11.383Z,3.90
2022-11-29T23:41:40.345Z,2.23
2022-11-29T23:44:09.704Z,1.67
2022-11-29T23:46:38.040Z,1.30
2022-11-29T23:49:06.414Z,1.17
2022-11-29T23:51:34.766Z,1.10
2022-11-29T23:54:03.037Z,0.70
2022-11-29T23:56:35.692Z,0.70
2022-11-29T23:59:04.173Z,0.80
